sensor_id;sensor_type;location;lat;lon;timestamp;pressure;altitude;pressure_sealevel;temperature;humidity
2549;BME280;1284;53.520;10.248;2022-07-30T00:01:50;100952.88;;;22.43;74.52
2549;BME280;1284;53.520;10.248;2022-07-30T00:04:16;100950.03;;;22.47;73.76
2549;BME280;1284;53.520;10.248;2022-07-30T00:06:42;100956.53;;;22.36;74.44
2549;BME280;1284;53.520;10.248;2022-07-30T00:09:08;100946.69;;;22.39;74.57
2549;BME280;1284;53.520;10.248;2022-07-30T00:11:33;100944.78;;;22.36;74.25
2549;BME280;1284;53.520;10.248;2022-07-30T00:14:00;100950.69;;;22.34;74.61
2549;BME280;1284;53.520;10.248;2022-07-30T00:16:25;100943.81;;;22.26;74.69
2549;BME280;1284;53.520;10.248;2022-07-30T00:18:51;100936.72;;;22.29;74.83
2549;BME280;1284;53.520;10.248;2022-07-30T00:21:17;100933.63;;;22.27;74.79
2549;BME280;1284;53.520;10.248;2022-07-30T00:23:42;100939.19;;;22.23;74.71
2549;BME280;1284;53.520;10.248;2022-07-30T00:26:08;100930.53;;;22.25;74.77
2549;BME280;1284;53.520;10.248;2022-07-30T00:28:33;100936.19;;;22.18;74.59
2549;BME280;1284;53.520;10.248;2022-07-30T00:30:59;100922.97;;;22.13;74.95
2549;BME280;1284;53.520;10.248;2022-07-30T00:33:25;100927.00;;;22.08;75.29
2549;BME280;1284;53.520;10.248;2022-07-30T00:35:51;100927.75;;;22.09;75.25
2549;BME280;1284;53.520;10.248;2022-07-30T00:38:17;100933.34;;;22.05;75.49
2549;BME280;1284;53.520;10.248;2022-07-30T00:40:45;100924.13;;;21.96;76.26
2549;BME280;1284;53.520;10.248;2022-07-30T00:43:15;100934.56;;;21.85;76.91
2549;BME280;1284;53.520;10.248;2022-07-30T00:45:42;100934.69;;;21.78;77.19
2549;BME280;1284;53.520;10.248;2022-07-30T00:48:07;100939.41;;;21.77;77.19
2549;BME280;1284;53.520;10.248;2022-07-30T00:50:34;100939.63;;;21.67;77.71
2549;BME280;1284;53.520;10.248;2022-07-30T00:53:00;100938.91;;;21.63;77.84
2549;BME280;1284;53.520;10.248;2022-07-30T00:55:25;100933.38;;;21.46;79.13
2549;BME280;1284;53.520;10.248;2022-07-30T00:57:51;100943.00;;;21.35;79.20
2549;BME280;1284;53.520;10.248;2022-07-30T01:00:17;100937.19;;;21.33;79.86
2549;BME280;1284;53.520;10.248;2022-07-30T01:02:43;100935.63;;;21.32;79.53
2549;BME280;1284;53.520;10.248;2022-07-30T01:05:09;100942.59;;;21.36;79.46
2549;BME280;1284;53.520;10.248;2022-07-30T01:07:35;100936.25;;;21.39;79.28
2549;BME280;1284;53.520;10.248;2022-07-30T01:10:01;100944.97;;;21.34;79.85
2549;BME280;1284;53.520;10.248;2022-07-30T01:12:27;100939.00;;;21.39;79.60
2549;BME280;1284;53.520;10.248;2022-07-30T01:14:57;100948.53;;;21.31;80.37
2549;BME280;1284;53.520;10.248;2022-07-30T01:17:24;100944.34;;;21.27;80.32
2549;BME280;1284;53.520;10.248;2022-07-30T01:19:52;100928.66;;;21.27;79.80
2549;BME280;1284;53.520;10.248;2022-07-30T01:22:33;100925.88;;;21.31;80.24
2549;BME280;1284;53.520;10.248;2022-07-30T01:27:43;100926.22;;;21.33;80.24
2549;BME280;1284;53.520;10.248;2022-07-30T01:30:11;100926.75;;;21.24;80.18
2549;BME280;1284;53.520;10.248;2022-07-30T01:32:39;100925.44;;;21.32;79.91
2549;BME280;1284;53.520;10.248;2022-07-30T01:35:08;100921.63;;;21.26;80.17
2549;BME280;1284;53.520;10.248;2022-07-30T01:37:34;100925.00;;;21.14;80.60
2549;BME280;1284;53.520;10.248;2022-07-30T01:40:01;100933.03;;;21.25;80.41
2549;BME280;1284;53.520;10.248;2022-07-30T01:42:28;100919.53;;;21.34;79.41
2549;BME280;1284;53.520;10.248;2022-07-30T01:44:56;100921.13;;;21.31;79.53
2549;BME280;1284;53.520;10.248;2022-07-30T01:47:24;100924.56;;;21.16;80.67
2549;BME280;1284;53.520;10.248;2022-07-30T01:49:52;100921.88;;;21.12;80.98
2549;BME280;1284;53.520;10.248;2022-07-30T01:52:19;100920.72;;;21.13;81.12
2549;BME280;1284;53.520;10.248;2022-07-30T01:54:49;100921.69;;;21.03;81.55
2549;BME280;1284;53.520;10.248;2022-07-30T01:57:18;100915.00;;;21.04;81.86
2549;BME280;1284;53.520;10.248;2022-07-30T01:59:48;100920.13;;;21.02;81.91
2549;BME280;1284;53.520;10.248;2022-07-30T02:02:14;100909.97;;;20.99;82.11
2549;BME280;1284;53.520;10.248;2022-07-30T02:04:40;100917.06;;;20.97;82.48
2549;BME280;1284;53.520;10.248;2022-07-30T02:07:15;100917.06;;;20.97;82.39
2549;BME280;1284;53.520;10.248;2022-07-30T02:09:50;100909.59;;;21.01;81.93
2549;BME280;1284;53.520;10.248;2022-07-30T02:12:22;100917.47;;;20.95;82.49
2549;BME280;1284;53.520;10.248;2022-07-30T02:15:13;100916.78;;;20.91;82.93
2549;BME280;1284;53.520;10.248;2022-07-30T02:17:43;100919.09;;;20.93;83.03
2549;BME280;1284;53.520;10.248;2022-07-30T02:20:12;100910.94;;;20.89;83.38
2549;BME280;1284;53.520;10.248;2022-07-30T02:22:40;100918.00;;;20.87;83.70
2549;BME280;1284;53.520;10.248;2022-07-30T02:25:08;100916.97;;;20.81;84.31
2549;BME280;1284;53.520;10.248;2022-07-30T02:27:37;100920.75;;;20.87;84.02
2549;BME280;1284;53.520;10.248;2022-07-30T02:30:06;100921.53;;;20.87;84.55
2549;BME280;1284;53.520;10.248;2022-07-30T02:32:38;100914.69;;;20.99;84.12
2549;BME280;1284;53.520;10.248;2022-07-30T02:35:17;100913.81;;;21.05;84.01
2549;BME280;1284;53.520;10.248;2022-07-30T02:37:46;100920.59;;;20.97;85.22
2549;BME280;1284;53.520;10.248;2022-07-30T02:40:14;100916.25;;;21.00;85.19
2549;BME280;1284;53.520;10.248;2022-07-30T02:42:42;100924.84;;;20.98;85.32
2549;BME280;1284;53.520;10.248;2022-07-30T02:45:12;100923.31;;;20.97;85.80
2549;BME280;1284;53.520;10.248;2022-07-30T02:47:40;100917.84;;;20.97;85.73
2549;BME280;1284;53.520;10.248;2022-07-30T02:50:08;100928.94;;;20.90;86.59
2549;BME280;1284;53.520;10.248;2022-07-30T02:52:39;100934.78;;;20.92;86.84
2549;BME280;1284;53.520;10.248;2022-07-30T02:55:07;100935.53;;;20.93;86.17
2549;BME280;1284;53.520;10.248;2022-07-30T02:57:34;100935.88;;;20.95;86.35
2549;BME280;1284;53.520;10.248;2022-07-30T03:00:02;100941.84;;;20.90;86.91
2549;BME280;1284;53.520;10.248;2022-07-30T03:02:28;100933.19;;;20.91;86.87
2549;BME280;1284;53.520;10.248;2022-07-30T03:04:56;100938.22;;;20.96;86.75
2549;BME280;1284;53.520;10.248;2022-07-30T03:07:24;100928.88;;;20.94;86.61
2549;BME280;1284;53.520;10.248;2022-07-30T03:09:52;100926.41;;;20.99;86.41
2549;BME280;1284;53.520;10.248;2022-07-30T03:12:20;100939.66;;;21.04;85.97
2549;BME280;1284;53.520;10.248;2022-07-30T03:14:46;100929.94;;;21.00;86.17
2549;BME280;1284;53.520;10.248;2022-07-30T03:17:14;100927.31;;;20.93;86.26
2549;BME280;1284;53.520;10.248;2022-07-30T03:19:44;100934.28;;;20.97;85.99
2549;BME280;1284;53.520;10.248;2022-07-30T03:22:11;100931.50;;;21.01;86.31
2549;BME280;1284;53.520;10.248;2022-07-30T03:24:39;100926.84;;;20.98;86.13
2549;BME280;1284;53.520;10.248;2022-07-30T03:27:08;100928.78;;;20.97;86.26
2549;BME280;1284;53.520;10.248;2022-07-30T03:29:36;100926.56;;;20.92;86.54
2549;BME280;1284;53.520;10.248;2022-07-30T03:32:04;100931.25;;;20.92;86.71
2549;BME280;1284;53.520;10.248;2022-07-30T03:34:32;100933.19;;;20.91;86.18
2549;BME280;1284;53.520;10.248;2022-07-30T03:37:00;100931.72;;;20.87;86.35
2549;BME280;1284;53.520;10.248;2022-07-30T03:39:26;100930.25;;;20.82;86.46
2549;BME280;1284;53.520;10.248;2022-07-30T03:41:52;100920.09;;;20.79;86.76
2549;BME280;1284;53.520;10.248;2022-07-30T03:44:20;100927.22;;;20.77;86.67
2549;BME280;1284;53.520;10.248;2022-07-30T03:46:47;100919.34;;;20.79;86.71
2549;BME280;1284;53.520;10.248;2022-07-30T03:49:15;100911.59;;;20.74;87.05
2549;BME280;1284;53.520;10.248;2022-07-30T03:51:45;100917.44;;;20.76;86.81
2549;BME280;1284;53.520;10.248;2022-07-30T03:54:13;100915.97;;;20.71;86.68
2549;BME280;1284;53.520;10.248;2022-07-30T03:56:40;100910.13;;;20.69;86.59
2549;BME280;1284;53.520;10.248;2022-07-30T03:59:27;100914.03;;;20.68;87.05
2549;BME280;1284;53.520;10.248;2022-07-30T04:01:53;100907.50;;;20.62;86.87
2549;BME280;1284;53.520;10.248;2022-07-30T04:04:41;100907.91;;;20.60;86.77
2549;BME280;1284;53.520;10.248;2022-07-30T04:07:07;100914.19;;;20.61;86.64
2549;BME280;1284;53.520;10.248;2022-07-30T04:09:33;100913.47;;;20.57;86.26
2549;BME280;1284;53.520;10.248;2022-07-30T04:12:11;100916.56;;;20.59;86.48
2549;BME280;1284;53.520;10.248;2022-07-30T04:14:40;100919.75;;;20.54;86.42
2549;BME280;1284;53.520;10.248;2022-07-30T04:20:00;100919.88;;;20.47;86.64
2549;BME280;1284;53.520;10.248;2022-07-30T04:22:32;100926.94;;;20.44;86.32
2549;BME280;1284;53.520;10.248;2022-07-30T04:25:00;100924.13;;;20.48;86.38
2549;BME280;1284;53.520;10.248;2022-07-30T04:27:27;100930.41;;;20.48;86.02
2549;BME280;1284;53.520;10.248;2022-07-30T04:29:55;100933.25;;;20.41;86.17
2549;BME280;1284;53.520;10.248;2022-07-30T04:32:21;100923.53;;;20.37;86.94
2549;BME280;1284;53.520;10.248;2022-07-30T04:34:50;100929.44;;;20.35;87.01
2549;BME280;1284;53.520;10.248;2022-07-30T04:37:33;100930.53;;;20.41;86.75
2549;BME280;1284;53.520;10.248;2022-07-30T04:39:58;100928.38;;;20.52;86.38
2549;BME280;1284;53.520;10.248;2022-07-30T04:42:25;100933.78;;;20.56;85.40
2549;BME280;1284;53.520;10.248;2022-07-30T04:45:08;100938.81;;;20.61;85.78
2549;BME280;1284;53.520;10.248;2022-07-30T04:47:47;100930.59;;;20.61;85.58
2549;BME280;1284;53.520;10.248;2022-07-30T04:50:40;100932.50;;;20.64;85.48
2549;BME280;1284;53.520;10.248;2022-07-30T04:53:10;100928.44;;;20.72;84.79
2549;BME280;1284;53.520;10.248;2022-07-30T04:55:41;100938.53;;;20.79;84.46
2549;BME280;1284;53.520;10.248;2022-07-30T04:58:11;100935.00;;;20.78;84.67
2549;BME280;1284;53.520;10.248;2022-07-30T05:00:38;100932.97;;;20.82;84.85
2549;BME280;1284;53.520;10.248;2022-07-30T05:03:06;100936.84;;;20.85;84.58
2549;BME280;1284;53.520;10.248;2022-07-30T05:05:34;100930.69;;;20.77;84.67
2549;BME280;1284;53.520;10.248;2022-07-30T05:08:01;100936.38;;;20.90;84.33
2549;BME280;1284;53.520;10.248;2022-07-30T05:10:28;100944.81;;;20.99;83.57
2549;BME280;1284;53.520;10.248;2022-07-30T05:12:53;100935.41;;;21.00;83.31
2549;BME280;1284;53.520;10.248;2022-07-30T05:15:21;100938.53;;;20.98;83.64
2549;BME280;1284;53.520;10.248;2022-07-30T05:17:48;100939.28;;;21.02;83.53
2549;BME280;1284;53.520;10.248;2022-07-30T05:20:15;100938.03;;;21.07;83.13
2549;BME280;1284;53.520;10.248;2022-07-30T05:23:00;100931.31;;;21.11;82.79
2549;BME280;1284;53.520;10.248;2022-07-30T05:25:27;100928.88;;;21.17;82.28
2549;BME280;1284;53.520;10.248;2022-07-30T05:27:59;100930.97;;;21.09;82.56
2549;BME280;1284;53.520;10.248;2022-07-30T05:30:25;100936.72;;;21.15;82.52
2549;BME280;1284;53.520;10.248;2022-07-30T05:32:52;100939.69;;;21.24;82.59
2549;BME280;1284;53.520;10.248;2022-07-30T05:35:18;100937.56;;;21.31;81.98
2549;BME280;1284;53.520;10.248;2022-07-30T05:37:44;100943.22;;;21.44;81.61
2549;BME280;1284;53.520;10.248;2022-07-30T05:40:10;100951.00;;;21.45;81.51
2549;BME280;1284;53.520;10.248;2022-07-30T05:43:09;100953.13;;;21.58;81.45
2549;BME280;1284;53.520;10.248;2022-07-30T05:45:36;100955.53;;;21.75;80.83
2549;BME280;1284;53.520;10.248;2022-07-30T05:48:02;100956.44;;;21.88;80.51
2549;BME280;1284;53.520;10.248;2022-07-30T05:50:28;100956.91;;;22.03;79.57
2549;BME280;1284;53.520;10.248;2022-07-30T05:52:53;100954.44;;;22.08;78.24
2549;BME280;1284;53.520;10.248;2022-07-30T05:55:40;100953.50;;;22.15;77.92
2549;BME280;1284;53.520;10.248;2022-07-30T05:58:28;100955.75;;;22.20;77.08
2549;BME280;1284;53.520;10.248;2022-07-30T06:00:54;100961.03;;;22.11;76.84
2549;BME280;1284;53.520;10.248;2022-07-30T06:03:20;100958.63;;;22.13;76.59
2549;BME280;1284;53.520;10.248;2022-07-30T06:06:10;100959.84;;;22.12;77.04
2549;BME280;1284;53.520;10.248;2022-07-30T06:08:36;100955.41;;;22.18;76.67
2549;BME280;1284;53.520;10.248;2022-07-30T06:11:03;100960.91;;;22.18;76.39
2549;BME280;1284;53.520;10.248;2022-07-30T06:13:29;100958.75;;;22.25;76.71
2549;BME280;1284;53.520;10.248;2022-07-30T06:15:55;100958.25;;;22.30;76.20
2549;BME280;1284;53.520;10.248;2022-07-30T06:18:21;100954.66;;;22.33;76.15
2549;BME280;1284;53.520;10.248;2022-07-30T06:20:51;100954.56;;;22.37;76.37
2549;BME280;1284;53.520;10.248;2022-07-30T06:23:28;100960.06;;;22.37;76.49
2549;BME280;1284;53.520;10.248;2022-07-30T06:26:07;100957.31;;;22.37;75.91
2549;BME280;1284;53.520;10.248;2022-07-30T06:28:33;100959.09;;;22.43;76.61
2549;BME280;1284;53.520;10.248;2022-07-30T06:30:59;100958.19;;;22.50;76.62
2549;BME280;1284;53.520;10.248;2022-07-30T06:33:27;100963.66;;;22.50;76.02
2549;BME280;1284;53.520;10.248;2022-07-30T06:35:52;100963.25;;;22.52;74.89
2549;BME280;1284;53.520;10.248;2022-07-30T06:38:22;100964.94;;;22.45;75.23
2549;BME280;1284;53.520;10.248;2022-07-30T06:41:03;100968.03;;;22.48;75.20
2549;BME280;1284;53.520;10.248;2022-07-30T06:43:48;100962.19;;;22.45;75.83
2549;BME280;1284;53.520;10.248;2022-07-30T06:46:33;100966.22;;;22.25;75.96
2549;BME280;1284;53.520;10.248;2022-07-30T06:48:59;100977.72;;;22.36;76.40
2549;BME280;1284;53.520;10.248;2022-07-30T06:51:25;100974.81;;;22.43;77.13
2549;BME280;1284;53.520;10.248;2022-07-30T06:53:50;100986.41;;;22.51;76.38
2549;BME280;1284;53.520;10.248;2022-07-30T06:56:36;100984.78;;;22.53;77.09
2549;BME280;1284;53.520;10.248;2022-07-30T06:59:04;100981.13;;;22.60;76.75
2549;BME280;1284;53.520;10.248;2022-07-30T07:01:48;100973.31;;;22.58;76.02
2549;BME280;1284;53.520;10.248;2022-07-30T07:04:16;100986.78;;;22.69;76.52
2549;BME280;1284;53.520;10.248;2022-07-30T07:06:42;100981.69;;;22.35;74.18
2549;BME280;1284;53.520;10.248;2022-07-30T07:09:13;100982.47;;;22.52;74.52
2549;BME280;1284;53.520;10.248;2022-07-30T07:11:46;100975.38;;;22.70;74.94
2549;BME280;1284;53.520;10.248;2022-07-30T07:14:16;100983.44;;;22.61;74.42
2549;BME280;1284;53.520;10.248;2022-07-30T07:16:42;100976.00;;;22.78;75.16
2549;BME280;1284;53.520;10.248;2022-07-30T07:19:26;100974.63;;;22.86;74.98
2549;BME280;1284;53.520;10.248;2022-07-30T07:21:52;100975.13;;;22.97;74.67
2549;BME280;1284;53.520;10.248;2022-07-30T07:24:17;100971.94;;;22.98;74.10
2549;BME280;1284;53.520;10.248;2022-07-30T07:26:52;100977.44;;;22.82;73.86
2549;BME280;1284;53.520;10.248;2022-07-30T07:29:18;100975.53;;;22.95;74.40
2549;BME280;1284;53.520;10.248;2022-07-30T07:31:44;100971.06;;;23.01;72.54
2549;BME280;1284;53.520;10.248;2022-07-30T07:34:10;100978.09;;;23.02;72.89
2549;BME280;1284;53.520;10.248;2022-07-30T07:36:35;100975.59;;;23.08;72.82
2549;BME280;1284;53.520;10.248;2022-07-30T07:39:02;100969.31;;;23.23;72.98
2549;BME280;1284;53.520;10.248;2022-07-30T07:41:37;100965.88;;;23.36;71.60
2549;BME280;1284;53.520;10.248;2022-07-30T07:44:04;100975.47;;;23.44;72.33
2549;BME280;1284;53.520;10.248;2022-07-30T07:46:32;100970.78;;;23.57;72.44
2549;BME280;1284;53.520;10.248;2022-07-30T07:48:59;100974.09;;;23.64;70.65
2549;BME280;1284;53.520;10.248;2022-07-30T07:51:31;100967.94;;;23.32;69.96
2549;BME280;1284;53.520;10.248;2022-07-30T07:53:57;100977.06;;;23.57;71.35
2549;BME280;1284;53.520;10.248;2022-07-30T07:56:22;100969.31;;;23.81;70.50
2549;BME280;1284;53.520;10.248;2022-07-30T07:58:49;100974.56;;;24.04;69.44
2549;BME280;1284;53.520;10.248;2022-07-30T08:01:19;100979.63;;;24.18;70.42
2549;BME280;1284;53.520;10.248;2022-07-30T08:04:04;100981.50;;;24.21;68.21
2549;BME280;1284;53.520;10.248;2022-07-30T08:06:48;100976.00;;;24.34;68.58
2549;BME280;1284;53.520;10.248;2022-07-30T08:09:32;100978.53;;;24.41;69.88
2549;BME280;1284;53.520;10.248;2022-07-30T08:12:24;100986.56;;;24.48;69.42
2549;BME280;1284;53.520;10.248;2022-07-30T08:15:09;100981.03;;;24.60;68.39
2549;BME280;1284;53.520;10.248;2022-07-30T08:17:42;100984.59;;;24.48;68.61
2549;BME280;1284;53.520;10.248;2022-07-30T08:20:15;100983.78;;;24.60;68.78
2549;BME280;1284;53.520;10.248;2022-07-30T08:22:41;100979.75;;;24.77;68.57
2549;BME280;1284;53.520;10.248;2022-07-30T08:25:07;100986.53;;;24.98;69.03
2549;BME280;1284;53.520;10.248;2022-07-30T08:27:34;100984.59;;;25.20;67.16
2549;BME280;1284;53.520;10.248;2022-07-30T08:30:07;100987.38;;;25.42;66.27
2549;BME280;1284;53.520;10.248;2022-07-30T08:32:34;100985.34;;;25.76;64.46
2549;BME280;1284;53.520;10.248;2022-07-30T08:35:00;100982.88;;;26.00;63.71
2549;BME280;1284;53.520;10.248;2022-07-30T08:37:26;100989.94;;;26.23;61.60
2549;BME280;1284;53.520;10.248;2022-07-30T08:39:52;100988.66;;;25.93;60.21
2549;BME280;1284;53.520;10.248;2022-07-30T08:42:18;100985.91;;;26.15;61.28
2549;BME280;1284;53.520;10.248;2022-07-30T08:44:44;100984.59;;;26.28;61.56
2549;BME280;1284;53.520;10.248;2022-07-30T08:47:15;100991.72;;;26.47;60.39
2549;BME280;1284;53.520;10.248;2022-07-30T08:50:10;100990.75;;;26.81;60.29
2549;BME280;1284;53.520;10.248;2022-07-30T08:52:51;100985.75;;;27.16;58.87
2549;BME280;1284;53.520;10.248;2022-07-30T08:55:24;100990.38;;;27.55;58.56
2549;BME280;1284;53.520;10.248;2022-07-30T08:57:50;100994.78;;;27.89;55.06
2549;BME280;1284;53.520;10.248;2022-07-30T09:00:17;100985.47;;;28.19;54.08
2549;BME280;1284;53.520;10.248;2022-07-30T09:02:43;100993.19;;;28.47;54.24
2549;BME280;1284;53.520;10.248;2022-07-30T09:05:10;100994.94;;;28.78;52.90
2549;BME280;1284;53.520;10.248;2022-07-30T09:07:37;100990.50;;;28.95;51.55
2549;BME280;1284;53.520;10.248;2022-07-30T09:10:07;101004.19;;;29.22;50.65
2549;BME280;1284;53.520;10.248;2022-07-30T09:12:37;101008.44;;;29.32;50.45
2549;BME280;1284;53.520;10.248;2022-07-30T09:15:10;101008.75;;;29.34;50.33
2549;BME280;1284;53.520;10.248;2022-07-30T09:20:28;101011.94;;;29.56;49.59
2549;BME280;1284;53.520;10.248;2022-07-30T09:22:56;101010.22;;;29.59;49.94
2549;BME280;1284;53.520;10.248;2022-07-30T09:25:38;101011.59;;;29.78;50.16
2549;BME280;1284;53.520;10.248;2022-07-30T09:28:30;101014.00;;;29.99;49.69
2549;BME280;1284;53.520;10.248;2022-07-30T09:31:18;101020.59;;;30.16;48.74
2549;BME280;1284;53.520;10.248;2022-07-30T09:34:02;101014.09;;;30.19;48.77
2549;BME280;1284;53.520;10.248;2022-07-30T09:36:47;101019.56;;;30.29;48.93
2549;BME280;1284;53.520;10.248;2022-07-30T09:39:34;101019.25;;;30.26;49.52
2549;BME280;1284;53.520;10.248;2022-07-30T09:42:24;101026.16;;;30.16;48.87
2549;BME280;1284;53.520;10.248;2022-07-30T09:45:08;101022.69;;;30.51;47.91
2549;BME280;1284;53.520;10.248;2022-07-30T09:47:41;101024.59;;;30.59;47.36
2549;BME280;1284;53.520;10.248;2022-07-30T09:50:09;101029.44;;;30.64;47.82
2549;BME280;1284;53.520;10.248;2022-07-30T09:52:37;101023.19;;;30.84;47.82
2549;BME280;1284;53.520;10.248;2022-07-30T09:55:04;101034.63;;;31.06;47.06
2549;BME280;1284;53.520;10.248;2022-07-30T09:57:30;101040.88;;;31.21;47.59
2549;BME280;1284;53.520;10.248;2022-07-30T10:00:19;101041.00;;;31.32;45.89
2549;BME280;1284;53.520;10.248;2022-07-30T10:02:54;101030.78;;;31.44;45.68
2549;BME280;1284;53.520;10.248;2022-07-30T10:05:48;101031.84;;;31.26;45.59
2549;BME280;1284;53.520;10.248;2022-07-30T10:08:14;101028.06;;;31.09;45.44
2549;BME280;1284;53.520;10.248;2022-07-30T10:10:41;101032.19;;;30.79;46.40
2549;BME280;1284;53.520;10.248;2022-07-30T10:13:07;101031.53;;;30.84;47.39
2549;BME280;1284;53.520;10.248;2022-07-30T10:15:35;101031.44;;;30.78;46.34
2549;BME280;1284;53.520;10.248;2022-07-30T10:18:04;101038.56;;;30.65;46.52
2549;BME280;1284;53.520;10.248;2022-07-30T10:20:59;101027.78;;;30.23;47.36
2549;BME280;1284;53.520;10.248;2022-07-30T10:23:30;101028.88;;;29.96;47.45
2549;BME280;1284;53.520;10.248;2022-07-30T10:26:20;101033.41;;;29.70;47.80
2549;BME280;1284;53.520;10.248;2022-07-30T10:29:19;101030.28;;;29.39;48.28
2549;BME280;1284;53.520;10.248;2022-07-30T10:31:46;101023.34;;;29.20;48.03
2549;BME280;1284;53.520;10.248;2022-07-30T10:34:12;101031.59;;;29.05;48.49
2549;BME280;1284;53.520;10.248;2022-07-30T10:36:50;101030.94;;;28.87;48.23
2549;BME280;1284;53.520;10.248;2022-07-30T10:39:20;101022.84;;;28.74;49.04
2549;BME280;1284;53.520;10.248;2022-07-30T10:47:15;101033.59;;;28.39;49.62
2549;BME280;1284;53.520;10.248;2022-07-30T10:50:03;101026.88;;;28.22;49.91
2549;BME280;1284;53.520;10.248;2022-07-30T10:52:52;101034.66;;;28.00;51.46
2549;BME280;1284;53.520;10.248;2022-07-30T10:55:21;101037.09;;;27.80;59.95
2549;BME280;1284;53.520;10.248;2022-07-30T11:00:25;101028.16;;;27.13;70.96
2549;BME280;1284;53.520;10.248;2022-07-30T11:03:20;101041.16;;;26.85;72.22
2549;BME280;1284;53.520;10.248;2022-07-30T11:08:40;101037.75;;;26.11;77.99
2549;BME280;1284;53.520;10.248;2022-07-30T11:13:55;101035.88;;;25.86;79.55
2549;BME280;1284;53.520;10.248;2022-07-30T11:17:07;101034.31;;;25.85;79.54
2549;BME280;1284;53.520;10.248;2022-07-30T11:19:16;101044.22;;;25.73;80.15
2549;BME280;1284;53.520;10.248;2022-07-30T11:21:44;101045.31;;;25.76;79.78
2549;BME280;1284;53.520;10.248;2022-07-30T11:24:46;101033.88;;;25.43;82.29
2549;BME280;1284;53.520;10.248;2022-07-30T11:27:45;101031.63;;;25.38;83.43
2549;BME280;1284;53.520;10.248;2022-07-30T11:32:43;101031.63;;;25.51;81.83
2549;BME280;1284;53.520;10.248;2022-07-30T11:40:37;101028.03;;;25.63;81.60
2549;BME280;1284;53.520;10.248;2022-07-30T11:43:23;101029.91;;;25.66;82.09
2549;BME280;1284;53.520;10.248;2022-07-30T11:48:35;101031.09;;;25.86;81.21
2549;BME280;1284;53.520;10.248;2022-07-30T11:51:02;101034.00;;;25.83;81.16
2549;BME280;1284;53.520;10.248;2022-07-30T11:53:27;101025.44;;;25.90;82.16
2549;BME280;1284;53.520;10.248;2022-07-30T11:55:55;101028.75;;;25.98;80.69
2549;BME280;1284;53.520;10.248;2022-07-30T11:58:32;101018.56;;;26.07;80.86
2549;BME280;1284;53.520;10.248;2022-07-30T12:01:11;101025.00;;;26.13;81.35
2549;BME280;1284;53.520;10.248;2022-07-30T12:03:41;101032.44;;;26.25;81.37
2549;BME280;1284;53.520;10.248;2022-07-30T12:06:13;101027.78;;;26.44;82.52
2549;BME280;1284;53.520;10.248;2022-07-30T12:08:44;101032.06;;;26.45;81.14
2549;BME280;1284;53.520;10.248;2022-07-30T12:11:11;101029.16;;;26.48;79.38
2549;BME280;1284;53.520;10.248;2022-07-30T12:13:37;101022.13;;;26.47;78.74
2549;BME280;1284;53.520;10.248;2022-07-30T12:16:07;101029.81;;;26.52;78.55
2549;BME280;1284;53.520;10.248;2022-07-30T12:18:34;101030.59;;;26.62;79.08
2549;BME280;1284;53.520;10.248;2022-07-30T12:21:04;101032.84;;;26.76;79.52
2549;BME280;1284;53.520;10.248;2022-07-30T12:23:34;101031.81;;;26.92;80.50
2549;BME280;1284;53.520;10.248;2022-07-30T12:26:00;101023.66;;;26.88;78.74
2549;BME280;1284;53.520;10.248;2022-07-30T12:28:28;101028.13;;;26.95;78.09
2549;BME280;1284;53.520;10.248;2022-07-30T12:30:55;101025.38;;;27.04;77.68
2549;BME280;1284;53.520;10.248;2022-07-30T12:33:22;101013.69;;;27.18;76.59
2549;BME280;1284;53.520;10.248;2022-07-30T12:35:54;101024.50;;;27.43;76.13
2549;BME280;1284;53.520;10.248;2022-07-30T12:38:21;101022.22;;;27.59;75.39
2549;BME280;1284;53.520;10.248;2022-07-30T12:43:15;101024.47;;;27.97;71.95
2549;BME280;1284;53.520;10.248;2022-07-30T12:45:41;101020.94;;;28.06;72.04
2549;BME280;1284;53.520;10.248;2022-07-30T12:48:10;101018.59;;;28.13;70.63
2549;BME280;1284;53.520;10.248;2022-07-30T12:50:36;101012.09;;;28.25;69.12
2549;BME280;1284;53.520;10.248;2022-07-30T12:53:01;101014.81;;;28.34;69.78
2549;BME280;1284;53.520;10.248;2022-07-30T12:55:31;101012.97;;;28.40;69.50
2549;BME280;1284;53.520;10.248;2022-07-30T12:57:58;101013.56;;;28.44;66.71
2549;BME280;1284;53.520;10.248;2022-07-30T13:00:30;101011.53;;;28.54;67.13
2549;BME280;1284;53.520;10.248;2022-07-30T13:02:56;101009.53;;;28.55;63.48
2549;BME280;1284;53.520;10.248;2022-07-30T13:05:45;101007.22;;;28.44;62.15
2549;BME280;1284;53.520;10.248;2022-07-30T13:08:10;100997.81;;;28.50;63.22
2549;BME280;1284;53.520;10.248;2022-07-30T13:10:36;100991.63;;;28.65;65.95
2549;BME280;1284;53.520;10.248;2022-07-30T13:13:02;100993.03;;;28.60;64.79
2549;BME280;1284;53.520;10.248;2022-07-30T13:15:28;100988.84;;;28.65;64.62
2549;BME280;1284;53.520;10.248;2022-07-30T13:17:53;100987.78;;;28.62;64.21
2549;BME280;1284;53.520;10.248;2022-07-30T13:20:19;100984.63;;;28.69;63.79
2549;BME280;1284;53.520;10.248;2022-07-30T13:22:45;100988.66;;;28.68;63.51
2549;BME280;1284;53.520;10.248;2022-07-30T13:25:11;100986.94;;;28.71;62.13
2549;BME280;1284;53.520;10.248;2022-07-30T13:27:37;100979.50;;;28.77;61.32
2549;BME280;1284;53.520;10.248;2022-07-30T13:30:03;100984.13;;;28.80;60.30
2549;BME280;1284;53.520;10.248;2022-07-30T13:32:29;100986.25;;;28.85;58.78
2549;BME280;1284;53.520;10.248;2022-07-30T13:34:55;100972.97;;;28.89;60.75
2549;BME280;1284;53.520;10.248;2022-07-30T13:37:21;100976.72;;;28.77;58.00
2549;BME280;1284;53.520;10.248;2022-07-30T13:39:47;100981.00;;;28.87;58.65
2549;BME280;1284;53.520;10.248;2022-07-30T13:42:13;100979.00;;;28.87;58.64
2549;BME280;1284;53.520;10.248;2022-07-30T13:44:39;100972.66;;;28.87;57.50
2549;BME280;1284;53.520;10.248;2022-07-30T13:47:04;100974.03;;;28.91;57.14
2549;BME280;1284;53.520;10.248;2022-07-30T13:49:33;100964.75;;;28.94;55.37
2549;BME280;1284;53.520;10.248;2022-07-30T13:52:00;100973.47;;;29.02;56.55
2549;BME280;1284;53.520;10.248;2022-07-30T13:54:26;100962.22;;;29.05;56.55